Time;durP1;ratioP1;P1;durP2;ratioP2;P2;SDS_P1;SDS_P2;PMS_P1;PMS_P2;Temp;Humidity;BMP_temperature;BMP_pressure;BME280_temperature;BME280_humidity;BME280_pressure;Samples;Min_cycle;Max_cycle;Signal;HPM_P1;HPM_P2
2021/11/25 00:01:32;;;;;;;27.17;10.63;;;3.10;99.90;;;;;;5011971;28;20409;-77
2021/11/25 00:03:57;;;;;;;25.30;10.90;;;3.10;99.90;;;;;;5012057;28;20514;-77
2021/11/25 00:06:23;;;;;;;24.63;10.00;;;3.10;99.90;;;;;;5011824;28;20056;-79
2021/11/25 00:08:49;;;;;;;23.33;10.20;;;3.20;99.90;;;;;;5012049;28;20022;-77
2021/11/25 00:11:14;;;;;;;19.97;9.80;;;3.20;99.90;;;;;;5012160;28;20037;-77
2021/11/25 00:13:40;;;;;;;22.83;9.33;;;3.30;99.90;;;;;;5011984;28;20482;-78
2021/11/25 00:16:06;;;;;;;24.97;11.13;;;3.30;99.90;;;;;;5011868;28;20539;-78
2021/11/25 00:18:32;;;;;;;22.83;9.60;;;3.30;99.90;;;;;;5012429;28;20077;-77
2021/11/25 00:20:57;;;;;;;22.67;9.67;;;3.30;99.90;;;;;;4995806;28;20470;-78
2021/11/25 00:23:23;;;;;;;23.70;9.83;;;3.40;99.90;;;;;;5013693;28;20026;-77
2021/11/25 00:25:49;;;;;;;24.47;9.73;;;3.30;99.90;;;;;;5009702;28;20502;-78
2021/11/25 00:28:15;;;;;;;24.03;11.13;;;3.30;99.90;;;;;;5011782;28;20034;-78
2021/11/25 00:30:40;;;;;;;22.53;10.13;;;3.30;99.90;;;;;;5013607;28;20406;-78
2021/11/25 00:33:06;;;;;;;23.97;10.30;;;3.30;99.90;;;;;;5011753;28;20442;-78
2021/11/25 00:35:32;;;;;;;26.70;10.30;;;3.30;99.90;;;;;;5013647;28;20072;-78
2021/11/25 00:37:58;;;;;;;23.93;10.23;;;3.30;99.90;;;;;;5013078;28;20025;-78
2021/11/25 00:40:23;;;;;;;20.00;8.97;;;3.30;99.90;;;;;;5012347;28;20026;-77
2021/11/25 00:42:49;;;;;;;23.63;9.23;;;3.30;99.90;;;;;;5009077;28;20049;-77
2021/11/25 00:45:16;;;;;;;23.80;9.63;;;3.40;99.90;;;;;;5012524;28;20033;-77
2021/11/25 00:47:43;;;;;;;25.07;9.93;;;3.30;99.90;;;;;;5012004;28;20021;-78
2021/11/25 00:50:11;;;;;;;21.83;9.57;;;3.30;99.90;;;;;;5011427;28;20417;-78
2021/11/25 00:52:37;;;;;;;21.17;9.70;;;3.30;99.90;;;;;;5009162;28;20395;-83
2021/11/25 00:55:03;;;;;;;24.93;10.20;;;3.40;99.90;;;;;;5009848;28;20014;-78
2021/11/25 00:57:29;;;;;;;26.03;9.70;;;3.40;99.90;;;;;;5009533;28;20018;-78
2021/11/25 00:59:55;;;;;;;24.03;9.43;;;3.40;99.90;;;;;;5011522;28;20026;-78
2021/11/25 01:02:21;;;;;;;23.93;10.00;;;3.20;99.90;;;;;;5011989;28;20470;-78
2021/11/25 01:04:47;;;;;;;27.57;10.30;;;3.20;99.90;;;;;;5011742;28;20021;-79
2021/11/25 01:07:13;;;;;;;19.63;9.30;;;3.30;99.90;;;;;;5012713;28;20078;-79
2021/11/25 01:09:39;;;;;;;24.17;10.10;;;3.30;99.90;;;;;;5011956;28;20116;-78
2021/11/25 01:12:07;;;;;;;20.03;9.33;;;3.20;99.90;;;;;;5011694;28;20052;-79
2021/11/25 01:14:35;;;;;;;25.67;9.93;;;3.30;99.90;;;;;;5019653;28;20438;-78
2021/11/25 01:17:01;;;;;;;22.07;9.63;;;3.20;99.90;;;;;;5018182;28;20113;-80
2021/11/25 01:19:27;;;;;;;21.03;9.43;;;3.20;99.90;;;;;;5018500;28;20513;-80
2021/11/25 01:21:53;;;;;;;23.10;9.57;;;3.30;99.90;;;;;;5018681;28;20018;-78
2021/11/25 01:24:19;;;;;;;27.17;9.37;;;3.20;99.90;;;;;;5018018;28;20022;-79
2021/11/25 01:26:44;;;;;;;20.93;9.67;;;3.30;99.90;;;;;;5018811;28;20167;-79
2021/11/25 01:29:11;;;;;;;17.37;8.87;;;3.20;99.90;;;;;;5018405;28;20017;-78
2021/11/25 01:31:41;;;;;;;22.97;9.97;;;3.30;99.90;;;;;;5019200;28;20034;-79
2021/11/25 01:34:07;;;;;;;20.63;9.80;;;3.30;99.90;;;;;;5018422;28;20021;-79
2021/11/25 01:36:34;;;;;;;22.57;9.37;;;3.30;99.90;;;;;;5018885;28;20042;-78
2021/11/25 01:39:00;;;;;;;21.87;8.80;;;3.30;99.90;;;;;;5010059;28;20046;-78
2021/11/25 01:41:26;;;;;;;18.60;8.90;;;3.20;99.90;;;;;;5002926;28;20057;-79
2021/11/25 01:43:52;;;;;;;20.87;9.33;;;3.20;99.90;;;;;;5008847;28;20478;-79
2021/11/25 01:46:20;;;;;;;22.37;10.10;;;3.20;99.90;;;;;;5020131;28;20125;-79
2021/11/25 01:48:47;;;;;;;21.97;8.80;;;3.20;99.90;;;;;;5018660;28;20025;-79
2021/11/25 01:51:18;;;;;;;20.67;9.03;;;3.30;99.90;;;;;;5018560;28;20021;-79
2021/11/25 01:53:45;;;;;;;19.90;9.57;;;3.20;99.90;;;;;;5019020;28;20100;-79
2021/11/25 01:56:11;;;;;;;23.27;8.97;;;3.20;99.90;;;;;;5018312;28;20053;-79
2021/11/25 01:58:37;;;;;;;20.37;8.80;;;3.30;99.90;;;;;;5018834;28;20113;-79
2021/11/25 02:01:06;;;;;;;25.13;9.70;;;3.30;99.90;;;;;;5019463;28;20109;-79
2021/11/25 02:03:32;;;;;;;24.10;9.37;;;3.20;99.90;;;;;;5019929;28;20101;-79
2021/11/25 02:05:59;;;;;;;22.23;9.27;;;3.30;99.90;;;;;;5018270;28;20047;-79
2021/11/25 02:08:25;;;;;;;25.37;9.70;;;3.30;99.90;;;;;;5018591;28;20068;-78
2021/11/25 02:10:52;;;;;;;23.83;9.93;;;3.30;99.90;;;;;;5019492;28;20049;-79
2021/11/25 02:13:19;;;;;;;21.63;9.87;;;3.30;99.90;;;;;;5018074;28;20104;-79
2021/11/25 02:15:45;;;;;;;23.00;9.60;;;3.30;99.90;;;;;;5018931;28;20113;-79
2021/11/25 02:18:14;;;;;;;21.37;9.40;;;3.30;99.90;;;;;;5018890;28;20441;-79
2021/11/25 02:20:44;;;;;;;20.53;8.97;;;3.40;99.90;;;;;;5019409;28;20405;-79
2021/11/25 02:23:12;;;;;;;19.73;8.90;;;3.30;99.90;;;;;;5019124;28;20017;-78
2021/11/25 02:25:38;;;;;;;19.47;8.80;;;3.30;99.90;;;;;;5015954;28;20018;-78
2021/11/25 02:28:04;;;;;;;21.63;9.83;;;3.40;99.90;;;;;;5015815;28;20072;-78
2021/11/25 02:30:30;;;;;;;22.03;9.03;;;3.30;99.90;;;;;;5015780;28;20058;-78
2021/11/25 02:32:55;;;;;;;20.67;9.37;;;3.30;99.90;;;;;;5015546;28;20052;-78
2021/11/25 02:35:28;;;;;;;22.03;9.33;;;3.30;99.90;;;;;;5016025;28;20446;-78
2021/11/25 02:37:54;;;;;;;;;;;3.30;99.90;;;;;;5015929;28;20038;-77
2021/11/25 02:40:27;;;;;;;19.47;8.70;;;3.30;99.90;;;;;;5014765;28;19908;-78
2021/11/25 02:43:03;;;;;;;19.43;8.17;;;3.30;99.90;;;;;;5015155;28;20077;-78
2021/11/25 02:45:30;;;;;;;17.70;9.17;;;3.30;99.90;;;;;;5015578;28;20056;-78
2021/11/25 02:47:56;;;;;;;19.73;8.77;;;3.20;99.90;;;;;;5015278;28;20022;-78
2021/11/25 02:50:25;;;;;;;22.13;9.60;;;3.20;99.90;;;;;;5014879;28;20059;-77
2021/11/25 02:52:51;;;;;;;18.53;8.57;;;3.20;99.90;;;;;;5014996;28;20026;-78
2021/11/25 02:55:18;;;;;;;20.53;9.10;;;3.30;99.90;;;;;;5014660;28;20020;-78
2021/11/25 02:57:45;;;;;;;22.10;8.93;;;3.20;99.90;;;;;;5016292;28;20486;-78
2021/11/25 03:00:41;;;;;;;21.27;8.93;;;3.30;99.90;;;;;;5014465;28;20021;-78
2021/11/25 03:03:11;;;;;;;22.23;9.23;;;3.30;99.90;;;;;;5013306;28;20037;-78
2021/11/25 03:05:39;;;;;;;19.93;9.17;;;3.20;99.90;;;;;;5014737;28;20476;-78
2021/11/25 03:08:08;;;;;;;19.00;8.57;;;3.30;99.90;;;;;;5014901;28;20469;-79
2021/11/25 03:10:36;;;;;;;21.63;9.07;;;3.30;99.90;;;;;;5014843;28;20473;-78
2021/11/25 03:13:03;;;;;;;19.67;8.77;;;3.30;99.90;;;;;;5014178;28;20042;-79
2021/11/25 03:15:33;;;;;;;20.20;9.27;;;3.30;99.90;;;;;;5015747;28;20041;-78
2021/11/25 03:17:59;;;;;;;19.40;8.70;;;3.30;99.90;;;;;;5014467;28;20021;-78
2021/11/25 03:20:25;;;;;;;19.23;8.27;;;3.30;99.90;;;;;;5014733;28;20451;-77
2021/11/25 03:22:51;;;;;;;18.57;8.90;;;3.30;99.90;;;;;;5015460;28;20041;-78
2021/11/25 03:25:17;;;;;;;21.17;9.17;;;3.40;99.90;;;;;;5014949;28;20014;-79
2021/11/25 03:27:43;;;;;;;18.00;8.63;;;3.40;99.90;;;;;;5015201;28;20022;-78
2021/11/25 03:30:09;;;;;;;20.97;9.27;;;3.40;99.90;;;;;;5014921;28;20091;-78
2021/11/25 03:32:35;;;;;;;22.50;8.33;;;3.30;99.90;;;;;;5014389;28;20087;-78
2021/11/25 03:35:01;;;;;;;16.80;8.03;;;3.40;99.90;;;;;;5013775;28;20490;-93
2021/11/25 03:37:26;;;;;;;19.30;9.00;;;3.50;99.90;;;;;;5014000;28;20022;-78
2021/11/25 03:39:52;;;;;;;20.93;9.23;;;3.40;99.90;;;;;;5013978;28;20049;-78
2021/11/25 03:42:18;;;;;;;17.87;8.13;;;3.40;99.90;;;;;;5013285;28;20057;-78
2021/11/25 03:44:45;;;;;;;17.57;8.67;;;3.40;99.90;;;;;;5014249;28;20450;-78
2021/11/25 03:47:11;;;;;;;21.23;9.13;;;3.40;99.90;;;;;;5014533;28;20029;-78
2021/11/25 03:49:37;;;;;;;19.87;9.17;;;3.30;99.90;;;;;;5013813;28;20116;-78
2021/11/25 03:52:03;;;;;;;22.50;9.33;;;3.40;99.90;;;;;;5013452;28;20065;-83
2021/11/25 03:54:28;;;;;;;19.40;8.47;;;3.30;99.90;;;;;;5013554;28;20415;-78
2021/11/25 03:56:54;;;;;;;19.27;8.87;;;3.40;99.90;;;;;;5013722;28;20022;-78
2021/11/25 03:59:19;;;;;;;17.97;9.03;;;3.40;99.90;;;;;;5013376;28;20053;-78
2021/11/25 04:01:45;;;;;;;18.67;8.00;;;3.30;99.90;;;;;;5014848;28;20028;-78
2021/11/25 04:04:11;;;;;;;17.23;8.83;;;3.30;99.90;;;;;;5013197;28;20029;-78
2021/11/25 04:06:37;;;;;;;19.47;8.50;;;3.30;99.90;;;;;;5013539;28;20451;-77
2021/11/25 04:09:04;;;;;;;18.47;8.37;;;3.20;99.90;;;;;;5013486;28;20076;-93
2021/11/25 04:11:29;;;;;;;18.70;8.50;;;3.30;99.90;;;;;;5014426;28;20026;-79
2021/11/25 04:13:57;;;;;;;19.63;8.70;;;3.30;99.90;;;;;;5012698;28;20497;-77
2021/11/25 04:16:22;;;;;;;19.43;9.03;;;3.20;99.90;;;;;;5012640;28;20025;-78
2021/11/25 04:18:48;;;;;;;23.10;8.83;;;3.30;99.90;;;;;;5014472;28;20026;-77
2021/11/25 04:21:14;;;;;;;19.77;9.03;;;3.30;99.90;;;;;;5012603;28;20476;-77
2021/11/25 04:23:39;;;;;;;19.80;8.30;;;3.30;99.90;;;;;;5013033;28;20024;-77
2021/11/25 04:26:05;;;;;;;20.20;9.10;;;3.30;99.90;;;;;;5012608;28;20026;-79
2021/11/25 04:28:31;;;;;;;20.90;9.27;;;3.30;99.90;;;;;;5012787;28;20036;-78
2021/11/25 04:36:42;;;;;;;19.90;8.50;;;3.30;99.90;;;;;;5013921;28;20441;-79
2021/11/25 04:39:09;;;;;;;21.03;9.23;;;3.30;99.90;;;;;;5012504;28;20381;-78
2021/11/25 04:41:35;;;;;;;20.23;8.80;;;3.40;99.90;;;;;;5012861;28;20046;-78
2021/11/25 04:44:01;;;;;;;19.90;8.53;;;3.40;99.90;;;;;;5012391;28;20053;-78
2021/11/25 04:46:28;;;;;;;19.57;8.40;;;3.30;99.90;;;;;;5013470;28;20469;-78
2021/11/25 04:48:53;;;;;;;20.33;8.90;;;3.30;99.90;;;;;;5013417;28;20058;-77
2021/11/25 04:51:19;;;;;;;20.70;9.40;;;3.30;99.90;;;;;;5012701;28;20041;-79
2021/11/25 04:53:45;;;;;;;20.33;9.00;;;3.30;99.90;;;;;;5013311;28;20022;-79
2021/11/25 04:56:11;;;;;;;23.30;9.77;;;3.30;99.90;;;;;;5013512;28;20026;-78
2021/11/25 04:58:37;;;;;;;22.20;8.33;;;3.30;99.90;;;;;;5012926;28;20022;-79
2021/11/25 05:01:03;;;;;;;20.57;8.63;;;3.40;99.90;;;;;;5014063;28;20443;-79
2021/11/25 05:03:29;;;;;;;23.63;9.30;;;3.30;99.90;;;;;;5013636;28;20370;-79
2021/11/25 05:05:54;;;;;;;22.53;9.27;;;3.40;99.90;;;;;;5014173;28;20026;-79
2021/11/25 05:08:21;;;;;;;18.70;8.13;;;3.40;99.90;;;;;;5013522;28;20037;-79
2021/11/25 05:10:47;;;;;;;22.50;9.37;;;3.40;99.90;;;;;;5013204;28;20061;-79
2021/11/25 05:13:13;;;;;;;18.50;8.93;;;3.30;99.90;;;;;;5012487;28;20107;-79
2021/11/25 05:15:39;;;;;;;20.23;9.30;;;3.30;99.90;;;;;;5014068;28;20105;-79
2021/11/25 05:18:05;;;;;;;26.70;10.33;;;3.20;99.90;;;;;;5014009;28;20029;-79
2021/11/25 05:20:31;;;;;;;21.13;8.90;;;3.30;99.90;;;;;;5012521;28;20057;-78
2021/11/25 05:22:57;;;;;;;25.70;10.67;;;3.30;99.90;;;;;;5013742;28;20488;-78
2021/11/25 05:25:23;;;;;;;22.50;9.30;;;3.20;99.90;;;;;;5012105;28;20077;-78
2021/11/25 05:27:49;;;;;;;21.03;9.17;;;3.20;99.90;;;;;;5012587;28;20088;-77
2021/11/25 05:30:16;;;;;;;20.57;9.47;;;3.20;99.90;;;;;;5011947;28;20072;-78
2021/11/25 05:32:43;;;;;;;19.50;8.90;;;3.20;99.90;;;;;;5013418;28;20030;-78
2021/11/25 05:35:09;;;;;;;19.23;9.33;;;3.30;99.90;;;;;;5011905;28;20022;-86
2021/11/25 05:37:35;;;;;;;24.30;10.63;;;3.30;99.90;;;;;;5013408;28;20454;-78
2021/11/25 05:40:05;;;;;;;26.60;9.83;;;3.30;99.90;;;;;;5011899;28;20033;-77
2021/11/25 05:42:32;;;;;;;23.90;10.17;;;3.30;99.90;;;;;;5011148;28;20054;-77
2021/11/25 05:44:58;;;;;;;21.90;9.70;;;3.30;99.90;;;;;;5012196;28;20022;-77
2021/11/25 05:47:24;;;;;;;24.73;10.13;;;3.20;99.90;;;;;;5012597;28;20391;-78
2021/11/25 05:49:50;;;;;;;26.63;11.00;;;3.30;99.90;;;;;;5013279;28;20100;-77
2021/11/25 05:52:15;;;;;;;24.80;10.13;;;3.20;99.90;;;;;;5011597;28;20168;-78
2021/11/25 05:54:41;;;;;;;24.20;9.87;;;3.30;99.90;;;;;;5012930;28;20029;-77
2021/11/25 05:57:07;;;;;;;25.43;10.67;;;3.30;99.90;;;;;;5012057;28;20076;-77
2021/11/25 05:59:33;;;;;;;24.90;9.80;;;3.40;99.90;;;;;;5012653;28;20429;-78
2021/11/25 06:02:01;;;;;;;24.97;10.03;;;3.30;99.90;;;;;;5015626;28;20022;-78
2021/11/25 06:04:27;;;;;;;26.50;10.47;;;3.30;99.90;;;;;;5016367;28;20458;-78
2021/11/25 06:06:53;;;;;;;25.13;9.83;;;3.30;99.90;;;;;;5015414;28;20056;-78
2021/11/25 06:09:18;;;;;;;25.33;10.37;;;3.30;99.90;;;;;;5015138;28;20037;-78
2021/11/25 06:11:45;;;;;;;27.70;11.83;;;3.30;99.90;;;;;;5015612;28;20022;-77
2021/11/25 06:14:10;;;;;;;27.53;10.77;;;3.40;99.90;;;;;;5015389;28;20033;-96
2021/11/25 06:16:36;;;;;;;25.43;10.83;;;3.30;99.90;;;;;;5016794;28;20367;-78
2021/11/25 06:19:01;;;;;;;26.43;11.60;;;3.40;99.90;;;;;;5016237;28;20447;-78
2021/11/25 06:21:27;;;;;;;26.67;10.40;;;3.40;99.90;;;;;;5014708;28;20021;-78
2021/11/25 06:23:53;;;;;;;28.73;10.93;;;3.40;99.90;;;;;;5015512;28;20032;-78
2021/11/25 06:26:18;;;;;;;30.03;11.40;;;3.40;99.90;;;;;;5016002;28;20017;-77
2021/11/25 06:28:44;;;;;;;28.47;11.47;;;3.40;99.90;;;;;;5015255;28;20030;-78
2021/11/25 06:31:10;;;;;;;24.47;10.20;;;3.40;99.90;;;;;;5015202;28;20053;-78
2021/11/25 06:33:35;;;;;;;27.10;10.47;;;3.40;99.90;;;;;;5014714;28;20025;-77
2021/11/25 06:36:01;;;;;;;25.43;10.17;;;3.40;99.90;;;;;;5015109;28;20514;-78
2021/11/25 06:38:27;;;;;;;26.77;10.87;;;3.40;99.90;;;;;;5014668;28;20450;-78
2021/11/25 06:40:53;;;;;;;26.77;11.13;;;3.30;99.90;;;;;;5016101;28;20439;-78
2021/11/25 06:43:18;;;;;;;24.10;10.43;;;3.40;99.90;;;;;;5014067;28;20104;-78
2021/11/25 06:45:44;;;;;;;22.17;10.10;;;3.40;99.90;;;;;;5015098;28;20022;-78
2021/11/25 06:48:10;;;;;;;22.13;9.87;;;3.40;99.90;;;;;;5014810;28;20053;-78
2021/11/25 06:50:36;;;;;;;25.03;10.33;;;3.30;99.90;;;;;;5014268;28;20026;-78
2021/11/25 06:53:02;;;;;;;22.07;10.30;;;3.40;99.90;;;;;;5014552;28;20030;-78
2021/11/25 06:55:28;;;;;;;24.37;10.70;;;3.40;99.90;;;;;;5015375;28;20125;-78
2021/11/25 06:57:53;;;;;;;25.83;10.10;;;3.40;99.90;;;;;;5015624;28;20014;-78
2021/11/25 07:00:22;;;;;;;25.50;10.80;;;3.50;99.90;;;;;;5014400;28;20021;-78
2021/11/25 07:02:53;;;;;;;26.57;10.40;;;3.50;99.90;;;;;;5015193;28;20072;-78
2021/11/25 07:05:19;;;;;;;25.57;10.10;;;3.40;99.90;;;;;;5015125;28;20109;-78
2021/11/25 07:07:45;;;;;;;23.27;9.50;;;3.40;99.90;;;;;;5014451;28;20447;-78
2021/11/25 07:10:14;;;;;;;26.10;11.13;;;3.40;99.90;;;;;;5013715;28;20467;-78
2021/11/25 07:12:40;;;;;;;23.27;10.30;;;3.40;99.90;;;;;;5015477;28;20032;-78
2021/11/25 07:15:09;;;;;;;25.23;10.90;;;3.40;99.90;;;;;;5015680;28;20026;-78
2021/11/25 07:17:35;;;;;;;25.97;11.30;;;3.40;99.90;;;;;;5013744;28;20026;-78
2021/11/25 07:20:02;;;;;;;25.47;10.63;;;3.40;99.90;;;;;;5014254;28;20410;-78
2021/11/25 07:22:29;;;;;;;32.33;11.30;;;3.40;99.90;;;;;;5013900;28;20351;-78
2021/11/25 07:24:55;;;;;;;26.83;11.43;;;3.40;99.90;;;;;;5014145;28;20075;-78
2021/11/25 07:27:20;;;;;;;29.03;10.90;;;3.40;99.90;;;;;;5013607;28;20518;-78
2021/11/25 07:29:46;;;;;;;30.83;10.83;;;3.40;99.90;;;;;;5014078;28;20120;-78
2021/11/25 07:32:12;;;;;;;29.73;11.40;;;3.40;99.90;;;;;;5014277;28;20390;-78
2021/11/25 07:34:37;;;;;;;29.80;11.03;;;3.50;99.90;;;;;;5013772;28;20033;-79
2021/11/25 07:37:03;;;;;;;34.37;12.37;;;3.40;99.90;;;;;;5013997;28;20044;-78
2021/11/25 07:39:29;;;;;;;31.73;11.90;;;3.50;99.90;;;;;;5013502;28;20029;-78
2021/11/25 07:41:55;;;;;;;30.47;11.73;;;3.50;99.90;;;;;;5015867;28;20021;-78
2021/11/25 07:44:21;;;;;;;28.23;11.40;;;3.50;99.90;;;;;;5034246;28;20381;-78
2021/11/25 07:46:46;;;;;;;32.33;11.50;;;3.50;99.90;;;;;;5016881;28;20032;-78
2021/11/25 07:49:12;;;;;;;26.40;10.27;;;3.60;99.90;;;;;;5016798;28;20373;-77
2021/11/25 07:51:38;;;;;;;25.23;10.37;;;3.60;99.90;;;;;;5034166;28;20410;-78
2021/11/25 07:54:08;;;;;;;27.10;10.33;;;3.60;99.90;;;;;;5017060;28;20022;-78
2021/11/25 07:56:35;;;;;;;29.47;10.80;;;3.60;99.90;;;;;;5016237;28;20113;-78
2021/11/25 07:59:00;;;;;;;25.80;11.23;;;3.60;99.90;;;;;;5034161;28;20029;-78
2021/11/25 08:01:26;;;;;;;29.80;11.63;;;3.60;99.90;;;;;;5034015;28;20079;-78
2021/11/25 08:03:52;;;;;;;27.90;11.37;;;3.60;99.90;;;;;;5016800;28;20112;-78
2021/11/25 08:06:17;;;;;;;27.80;11.37;;;3.60;99.90;;;;;;5016506;28;20024;-85
2021/11/25 08:08:43;;;;;;;28.23;11.40;;;3.60;99.90;;;;;;5016735;28;20476;-78
2021/11/25 08:11:09;;;;;;;26.13;10.27;;;3.60;99.90;;;;;;5016862;28;20053;-78
2021/11/25 08:13:35;;;;;;;23.30;10.33;;;3.60;99.90;;;;;;5016152;28;20032;-80
2021/11/25 08:16:01;;;;;;;24.47;10.67;;;3.70;99.90;;;;;;5011005;28;20038;-79
2021/11/25 08:18:27;;;;;;;25.07;10.33;;;3.70;99.90;;;;;;5029294;28;20049;-79
2021/11/25 08:20:52;;;;;;;26.27;10.53;;;3.80;99.90;;;;;;4992419;28;20025;-85
2021/11/25 08:23:18;;;;;;;24.97;11.17;;;3.80;99.90;;;;;;5017898;28;20022;-91
2021/11/25 08:25:44;;;;;;;22.83;9.83;;;3.80;99.90;;;;;;5012490;28;20025;-80
2021/11/25 08:28:09;;;;;;;29.33;10.47;;;3.70;99.90;;;;;;5025226;28;20032;-81
2021/11/25 08:30:35;;;;;;;29.50;11.10;;;3.80;99.90;;;;;;5009642;28;20531;-79
2021/11/25 08:33:02;;;;;;;28.97;11.63;;;3.80;99.90;;;;;;5000204;28;20419;-79
2021/11/25 08:35:28;;;;;;;26.90;11.20;;;3.80;99.90;;;;;;4993171;28;20072;-81
2021/11/25 08:37:55;;;;;;;27.30;11.40;;;3.80;99.90;;;;;;5030749;28;20035;-78
2021/11/25 08:40:21;;;;;;;29.20;11.03;;;3.80;99.90;;;;;;5005796;28;20033;-81
2021/11/25 08:42:47;;;;;;;25.87;11.07;;;3.90;99.90;;;;;;5015609;28;20046;-82
2021/11/25 08:45:14;;;;;;;28.83;12.23;;;4.00;99.90;;;;;;5019737;28;20109;-79
2021/11/25 08:47:40;;;;;;;28.30;12.27;;;3.90;99.50;;;;;;5019345;28;20026;-79
2021/11/25 08:50:09;;;;;;;27.80;12.20;;;3.90;99.50;;;;;;5021086;28;20045;-82
2021/11/25 08:52:35;;;;;;;28.90;13.03;;;3.90;99.00;;;;;;5011132;28;20099;-78
2021/11/25 08:55:01;;;;;;;31.93;12.63;;;3.90;98.90;;;;;;5011774;28;20057;-83
2021/11/25 08:57:27;;;;;;;30.73;12.50;;;3.90;98.60;;;;;;5014803;28;20565;-79
2021/11/25 08:59:53;;;;;;;29.27;12.67;;;3.90;98.50;;;;;;4994663;28;20029;-85
2021/11/25 09:02:19;;;;;;;30.97;12.63;;;3.90;98.50;;;;;;5005320;28;20068;-79
2021/11/25 09:04:45;;;;;;;28.00;12.53;;;4.00;98.60;;;;;;4993928;28;20080;-82
2021/11/25 09:07:10;;;;;;;32.40;13.07;;;4.00;98.30;;;;;;5019291;28;20493;-79
2021/11/25 09:09:36;;;;;;;28.57;12.67;;;4.00;98.30;;;;;;5014644;28;20073;-78
2021/11/25 09:12:02;;;;;;;30.23;13.10;;;4.00;98.50;;;;;;5002718;28;20124;-81
2021/11/25 09:14:27;;;;;;;31.47;13.70;;;4.00;98.40;;;;;;5009796;28;20032;-80
2021/11/25 09:16:53;;;;;;;35.43;14.30;;;4.00;98.30;;;;;;5006823;28;20113;-78
2021/11/25 09:19:22;;;;;;;32.57;13.43;;;4.00;98.10;;;;;;5018973;28;20451;-80
2021/11/25 09:21:48;;;;;;;31.43;13.70;;;4.00;98.10;;;;;;5011825;28;20030;-80
2021/11/25 09:24:13;;;;;;;30.43;13.33;;;4.00;98.20;;;;;;5028455;28;20032;-79
2021/11/25 09:26:39;;;;;;;29.43;12.53;;;4.00;98.40;;;;;;5011439;28;20029;-80
2021/11/25 09:29:07;;;;;;;30.33;12.70;;;4.10;98.40;;;;;;5010136;28;20457;-79
2021/11/25 09:31:34;;;;;;;33.27;14.67;;;4.10;98.00;;;;;;5011845;28;20521;-78
2021/11/25 09:34:00;;;;;;;30.10;13.07;;;4.10;98.20;;;;;;5029267;28;20030;-83
2021/11/25 09:36:29;;;;;;;27.87;12.73;;;4.10;98.10;;;;;;5030714;28;20614;-79
2021/11/25 09:38:55;;;;;;;29.47;12.67;;;4.20;98.30;;;;;;5013246;28;20032;-79
2021/11/25 09:41:21;;;;;;;32.07;13.10;;;4.20;98.30;;;;;;5016247;28;20108;-88
2021/11/25 09:43:47;;;;;;;28.73;13.13;;;4.20;97.80;;;;;;5031313;28;20058;-79
2021/11/25 09:46:14;;;;;;;29.73;13.23;;;4.20;97.50;;;;;;5012805;28;20045;-79
2021/11/25 09:48:40;;;;;;;31.70;13.83;;;4.20;97.50;;;;;;5031942;28;20481;-81
2021/11/25 09:51:08;;;;;;;36.30;13.67;;;4.20;97.20;;;;;;5034367;28;20025;-80
2021/11/25 09:53:34;;;;;;;30.43;13.23;;;4.30;97.00;;;;;;5011736;28;20106;-79
2021/11/25 09:56:01;;;;;;;28.43;12.47;;;4.30;96.90;;;;;;5012729;28;20446;-80
2021/11/25 09:58:30;;;;;;;29.93;12.47;;;4.30;96.80;;;;;;5010608;28;20088;-78
2021/11/25 10:01:02;;;;;;;32.07;13.63;;;4.30;96.90;;;;;;5014780;28;20029;-82
2021/11/25 10:03:27;;;;;;;;;;;4.40;96.80;;;;;;5020513;28;20041;-82
2021/11/25 10:05:57;;;;;;;28.37;11.47;;;4.50;96.80;;;;;;5015634;28;19913;-79
2021/11/25 10:08:43;;;;;;;32.07;13.13;;;4.50;96.70;;;;;;5010755;28;20041;-78
2021/11/25 10:11:19;;;;;;;30.70;12.37;;;4.50;96.60;;;;;;5015364;28;20028;-79
2021/11/25 10:13:54;;;;;;;31.57;13.07;;;4.50;96.40;;;;;;5004721;28;20033;-79
2021/11/25 10:16:28;;;;;;;33.40;14.30;;;4.50;96.70;;;;;;5016780;28;20098;-78
2021/11/25 10:18:58;;;;;;;33.43;13.37;;;4.50;96.70;;;;;;5015046;28;20060;-82
2021/11/25 10:21:26;;;;;;;32.57;13.17;;;4.60;96.60;;;;;;5014445;28;20109;-79
2021/11/25 10:23:55;;;;;;;31.83;13.83;;;4.60;96.20;;;;;;5014111;28;20034;-80
2021/11/25 10:26:22;;;;;;;30.27;13.00;;;4.60;96.00;;;;;;5010839;28;20026;-81
2021/11/25 10:28:52;;;;;;;31.13;13.67;;;4.60;96.10;;;;;;5031755;28;20075;-80
2021/11/25 10:31:30;;;;;;;32.83;14.13;;;4.60;96.20;;;;;;5032768;28;20026;-80
2021/11/25 10:34:02;;;;;;;31.17;12.77;;;4.50;96.30;;;;;;5018537;28;20449;-78
2021/11/25 10:42:37;;;;;;;26.63;11.73;;;4.60;95.70;;;;;;5019911;28;20056;-78
2021/11/25 10:45:11;;;;;;;26.10;12.07;;;4.60;95.10;;;;;;5012328;28;20030;-81
2021/11/25 10:47:36;;;;;;;26.37;11.80;;;4.50;94.80;;;;;;5014155;28;20418;-79
2021/11/25 10:50:08;;;;;;;27.17;12.00;;;4.50;94.90;;;;;;5011747;28;20060;-78
2021/11/25 10:52:43;;;;;;;31.63;12.48;;;4.50;94.90;;;;;;5028707;28;20018;-83
2021/11/25 10:55:15;;;;;;;24.37;11.17;;;4.50;94.50;;;;;;5015686;28;20029;-79
2021/11/25 10:57:54;;;;;;;26.75;12.00;;;4.50;94.40;;;;;;5036342;28;20057;-80
2021/11/25 11:00:28;;;;;;;27.77;12.07;;;4.50;94.50;;;;;;4998681;28;20463;-79
2021/11/25 11:03:09;;;;;;;27.97;11.80;;;4.50;94.80;;;;;;5013942;28;20022;-80
2021/11/25 11:06:00;;;;;;;29.23;11.93;;;4.50;94.70;;;;;;5008768;28;20056;-79
2021/11/25 11:08:31;;;;;;;27.57;12.60;;;4.40;94.60;;;;;;5024066;28;20172;-80
2021/11/25 11:10:58;;;;;;;30.37;12.33;;;4.40;94.70;;;;;;5024366;28;20025;-81
2021/11/25 11:15:59;;;;;;;31.60;12.80;;;4.40;95.10;;;;;;5018006;28;20025;-83
2021/11/25 11:19:02;;;;;;;31.17;12.47;;;4.40;95.00;;;;;;5017665;28;20096;-82
2021/11/25 11:21:35;;;;;;;30.60;12.53;;;4.40;95.00;;;;;;5030380;28;20026;-80
2021/11/25 11:24:30;;;;;;;29.03;12.87;;;4.40;95.10;;;;;;5021482;28;20017;-82
2021/11/25 11:26:58;;;;;;;30.50;13.37;;;4.40;94.90;;;;;;5008277;28;20033;-80
2021/11/25 11:29:29;;;;;;;29.80;13.23;;;4.40;95.10;;;;;;5025335;28;20030;-81
2021/11/25 11:31:57;;;;;;;27.97;12.30;;;4.40;95.10;;;;;;5004360;28;20032;-80
2021/11/25 11:34:25;;;;;;;31.47;13.20;;;4.40;94.80;;;;;;5020171;28;20428;-85
2021/11/25 11:36:53;;;;;;;31.03;14.17;;;4.40;95.10;;;;;;5005099;28;20056;-78
2021/11/25 11:39:25;;;;;;;30.00;12.60;;;4.40;94.80;;;;;;5002694;28;20045;-78
2021/11/25 11:41:52;;;;;;;30.67;13.23;;;4.40;94.70;;;;;;5008027;28;20041;-80
2021/11/25 11:44:23;;;;;;;33.13;15.53;;;4.40;94.90;;;;;;5004461;28;20030;-78
2021/11/25 11:47:08;;;;;;;32.47;13.77;;;4.50;95.10;;;;;;5019716;28;20495;-77
2021/11/25 11:49:35;;;;;;;31.47;14.83;;;4.50;95.30;;;;;;5020189;28;20033;-78
2021/11/25 11:52:27;;;;;;;34.03;14.13;;;4.40;95.30;;;;;;5007945;28;20047;-80
2021/11/25 11:54:58;;;;;;;36.67;15.15;;;4.50;95.20;;;;;;5003735;28;20059;-77
2021/11/25 11:57:41;;;;;;;33.40;14.50;;;4.50;95.30;;;;;;5003641;28;20117;-80
2021/11/25 12:00:28;;;;;;;33.50;14.07;;;4.50;95.00;;;;;;5006252;28;20037;-77
2021/11/25 12:02:56;;;;;;;34.07;14.60;;;4.40;95.00;;;;;;5005199;28;20040;-77
2021/11/25 12:05:39;;;;;;;33.83;15.00;;;4.40;94.90;;;;;;5020298;28;20048;-78
2021/11/25 12:08:20;;;;;;;33.67;15.10;;;4.40;95.10;;;;;;5008670;28;20030;-80
2021/11/25 12:11:07;;;;;;;39.43;16.47;;;4.40;95.30;;;;;;5019879;28;20049;-80
2021/11/25 12:13:53;;;;;;;34.50;15.27;;;4.40;95.30;;;;;;5005520;28;20454;-78
2021/11/25 12:16:19;;;;;;;34.40;14.73;;;4.30;95.10;;;;;;5008230;28;20057;-78
2021/11/25 12:18:54;;;;;;;37.73;14.73;;;4.30;95.40;;;;;;5004801;28;20053;-79
2021/11/25 12:21:41;;;;;;;36.87;15.63;;;4.30;95.50;;;;;;5003282;28;20473;-78
2021/11/25 12:24:14;;;;;;;36.73;14.93;;;4.20;95.70;;;;;;5004709;28;20022;-79
2021/11/25 12:27:12;;;;;;;38.53;16.00;;;4.20;95.60;;;;;;5003886;28;20033;-76
2021/11/25 12:30:16;;;;;;;40.33;15.83;;;4.20;95.80;;;;;;5023525;28;20025;-78
2021/11/25 12:35:31;;;;;;;45.93;16.87;;;4.20;95.70;;;;;;5021004;28;20033;-78
2021/11/25 12:38:07;;;;;;;39.50;16.13;;;4.20;95.80;;;;;;5005356;28;20043;-79
2021/11/25 12:40:33;;;;;;;37.37;15.50;;;4.10;95.80;;;;;;5021728;28;20022;-78
2021/11/25 12:43:10;;;;;;;40.97;16.20;;;4.10;95.80;;;;;;5008461;28;20576;-77
2021/11/25 12:45:38;;;;;;;37.63;15.20;;;4.10;95.90;;;;;;5002990;28;20052;-81
2021/11/25 12:48:13;;;;;;;36.60;16.30;;;4.00;95.80;;;;;;4996727;28;20105;-78
2021/11/25 12:50:55;;;;;;;39.30;15.60;;;4.00;96.00;;;;;;5018772;28;20088;-82
2021/11/25 12:53:27;;;;;;;34.87;13.93;;;4.10;95.80;;;;;;5008517;28;20101;-75
2021/11/25 12:56:00;;;;;;;34.47;15.30;;;4.00;95.50;;;;;;5008335;28;20041;-76
2021/11/25 12:58:32;;;;;;;39.63;15.60;;;4.00;95.60;;;;;;5000713;28;20021;-76
2021/11/25 13:00:58;;;;;;;39.30;15.05;;;4.00;95.60;;;;;;4998727;28;20022;-77
2021/11/25 13:03:23;;;;;;;34.73;15.53;;;4.00;95.80;;;;;;5014197;28;20481;-77